createdAt,value
2019-05-10T00:02:26.601Z,7.70
2019-05-10T00:05:18.405Z,8.30
2019-05-10T00:08:08.175Z,8.23
2019-05-10T00:10:51.754Z,7.90
2019-05-10T00:13:24.333Z,7.93
2019-05-10T00:15:55.968Z,8.43
2019-05-10T00:18:25.937Z,8.63
2019-05-10T00:20:56.143Z,8.93
2019-05-10T00:23:26.223Z,8.90
2019-05-10T00:25:55.972Z,9.00
2019-05-10T00:28:25.925Z,8.33
2019-05-10T00:30:56.006Z,9.47
2019-05-10T00:33:25.747Z,8.60
2019-05-10T00:35:57.625Z,8.60
2019-05-10T00:38:27.928Z,9.60
2019-05-10T00:41:00.887Z,9.17
2019-05-10T00:43:31.741Z,9.20
2019-05-10T00:46:02.654Z,8.57
2019-05-10T00:48:32.610Z,8.37
2019-05-10T00:51:02.561Z,9.77
2019-05-10T00:53:34.900Z,9.77
2019-05-10T00:56:04.685Z,9.33
2019-05-10T00:58:34.521Z,9.73
2019-05-10T01:01:04.835Z,10.37
2019-05-10T01:03:34.987Z,10.50
2019-05-10T01:06:04.984Z,10.40
2019-05-10T01:08:35.189Z,10.27
2019-05-10T01:11:05.608Z,10.33
2019-05-10T01:13:36.252Z,10.57
2019-05-10T01:16:06.677Z,10.70
2019-05-10T01:18:38.861Z,10.40
2019-05-10T01:21:08.726Z,10.87
2019-05-10T01:23:38.519Z,11.53
2019-05-10T01:26:08.441Z,10.80
2019-05-10T01:28:38.768Z,11.77
2019-05-10T01:31:08.647Z,11.47
2019-05-10T01:33:39.148Z,11.47
2019-05-10T01:36:09.178Z,12.50
2019-05-10T01:38:39.761Z,11.87
2019-05-10T01:41:09.921Z,12.60
2019-05-10T01:43:39.890Z,12.67
2019-05-10T01:46:10.393Z,12.23
2019-05-10T01:48:40.633Z,12.33
2019-05-10T01:51:10.731Z,13.00
2019-05-10T01:53:41.760Z,12.97
2019-05-10T01:56:11.527Z,12.47
2019-05-10T01:58:41.644Z,13.93
2019-05-10T02:01:12.357Z,13.30
2019-05-10T02:03:42.378Z,13.00
2019-05-10T02:06:12.744Z,13.33
2019-05-10T02:08:42.846Z,13.73
2019-05-10T02:11:12.642Z,14.70
2019-05-10T02:13:42.461Z,14.77
2019-05-10T02:16:12.870Z,14.20
2019-05-10T02:18:42.754Z,13.73
2019-05-10T02:21:12.700Z,13.80
2019-05-10T02:23:43.393Z,12.93
2019-05-10T02:26:13.277Z,14.77
2019-05-10T02:28:45.104Z,13.63
2019-05-10T02:31:21.484Z,13.80
2019-05-10T02:33:50.071Z,14.30
2019-05-10T02:36:20.621Z,13.97
2019-05-10T02:38:50.805Z,14.33
2019-05-10T02:41:21.347Z,14.27
2019-05-10T02:43:52.529Z,13.27
2019-05-10T02:46:23.087Z,15.20
2019-05-10T02:48:53.243Z,14.37
2019-05-10T02:51:23.227Z,14.77
2019-05-10T02:53:54.690Z,15.50
2019-05-10T02:56:31.011Z,16.07
2019-05-10T02:58:58.626Z,16.47
2019-05-10T03:01:34.472Z,14.93
2019-05-10T03:04:04.976Z,15.50
2019-05-10T03:06:36.602Z,15.47
2019-05-10T03:09:09.066Z,14.37
2019-05-10T03:11:47.735Z,15.40
2019-05-10T03:14:20.348Z,16.43
2019-05-10T03:16:53.819Z,16.07
2019-05-10T03:19:24.245Z,16.40
2019-05-10T03:22:09.305Z,15.87
2019-05-10T03:24:39.221Z,16.07
2019-05-10T03:27:09.510Z,17.50
2019-05-10T03:29:39.565Z,15.83
2019-05-10T03:32:10.612Z,14.70
2019-05-10T03:34:42.577Z,16.33
2019-05-10T03:37:12.443Z,15.63
2019-05-10T03:39:42.622Z,16.87
2019-05-10T03:42:12.609Z,16.57
2019-05-10T03:44:44.323Z,16.53
2019-05-10T03:47:14.535Z,17.23
2019-05-10T03:49:47.597Z,16.60
2019-05-10T03:52:17.818Z,15.93
2019-05-10T03:54:48.723Z,16.83
2019-05-10T03:57:19.669Z,17.03
2019-05-10T03:59:49.732Z,16.57
2019-05-10T04:02:20.006Z,16.17
2019-05-10T04:04:51.469Z,16.03
2019-05-10T04:07:21.196Z,15.93
2019-05-10T04:09:52.335Z,16.07
2019-05-10T04:12:23.489Z,17.93
2019-05-10T04:14:53.609Z,20.17
2019-05-10T04:17:23.560Z,17.77
2019-05-10T04:19:54.208Z,16.13
2019-05-10T04:22:24.133Z,16.53
2019-05-10T04:24:53.964Z,16.57
2019-05-10T04:27:32.207Z,16.03
2019-05-10T04:29:56.063Z,16.03
2019-05-10T04:32:26.053Z,17.03
2019-05-10T04:34:55.627Z,17.03
2019-05-10T04:37:26.494Z,16.60
2019-05-10T04:39:56.429Z,16.07
2019-05-10T04:42:26.147Z,16.43
2019-05-10T04:44:55.961Z,15.83
2019-05-10T04:47:26.403Z,16.00
2019-05-10T04:49:56.014Z,16.43
2019-05-10T04:52:25.881Z,15.87
2019-05-10T04:54:57.769Z,16.37
2019-05-10T04:57:28.596Z,16.77
2019-05-10T04:59:58.233Z,15.73
2019-05-10T05:02:30.995Z,14.90
2019-05-10T05:05:01.922Z,14.47
2019-05-10T05:07:31.571Z,16.50
2019-05-10T05:10:01.830Z,15.50
2019-05-10T05:12:31.676Z,14.90
2019-05-10T05:15:01.757Z,13.63
2019-05-10T05:17:33.294Z,13.40
2019-05-10T05:20:02.952Z,12.63
2019-05-10T05:22:33.102Z,12.67
2019-05-10T05:25:03.907Z,12.40
2019-05-10T05:27:33.567Z,12.93
2019-05-10T05:30:03.487Z,12.00
2019-05-10T05:32:38.680Z,12.07
2019-05-10T05:35:05.944Z,11.97
2019-05-10T05:37:38.167Z,11.93
2019-05-10T05:40:09.828Z,11.83
2019-05-10T05:42:39.995Z,12.00
2019-05-10T05:45:10.273Z,11.70
2019-05-10T05:47:42.308Z,12.17
2019-05-10T05:50:11.768Z,12.00
2019-05-10T05:52:41.708Z,11.17
2019-05-10T05:55:12.371Z,11.50
2019-05-10T05:57:42.434Z,11.83
2019-05-10T06:00:12.588Z,10.80
2019-05-10T06:02:44.973Z,10.83
2019-05-10T06:05:32.209Z,11.87
2019-05-10T06:07:52.329Z,12.20
2019-05-10T06:10:21.704Z,10.53
2019-05-10T06:12:52.950Z,11.57
2019-05-10T06:15:29.185Z,10.70
2019-05-10T06:18:03.653Z,11.47
2019-05-10T06:20:30.474Z,10.70
2019-05-10T06:23:07.551Z,14.73
2019-05-10T06:25:39.653Z,10.37
2019-05-10T06:28:03.444Z,11.23
2019-05-10T06:30:34.848Z,10.00
2019-05-10T06:33:12.714Z,9.20
2019-05-10T06:35:40.792Z,10.53
2019-05-10T06:38:11.933Z,9.60
2019-05-10T06:40:47.203Z,10.30
2019-05-10T06:43:15.550Z,9.73
2019-05-10T06:45:46.764Z,9.50
2019-05-10T06:48:25.843Z,8.67
2019-05-10T06:50:49.029Z,9.10
2019-05-10T06:53:19.268Z,9.20
2019-05-10T06:55:49.249Z,9.33
2019-05-10T06:58:20.495Z,8.40
2019-05-10T07:00:50.553Z,8.33
2019-05-10T07:03:20.246Z,8.77
2019-05-10T07:05:50.111Z,8.27
2019-05-10T07:08:20.518Z,8.93
2019-05-10T07:10:50.314Z,8.13
2019-05-10T07:13:19.934Z,8.30
2019-05-10T07:15:50.003Z,8.53
2019-05-10T07:18:22.668Z,10.03
2019-05-10T07:21:00.967Z,7.20
2019-05-10T07:23:30.171Z,7.43
2019-05-10T07:26:00.314Z,7.27
2019-05-10T07:28:29.913Z,7.13
2019-05-10T07:30:59.498Z,8.20
2019-05-10T07:33:32.133Z,9.43
2019-05-10T07:36:01.106Z,8.30
2019-05-10T07:38:32.947Z,7.50
2019-05-10T07:41:02.902Z,7.37
2019-05-10T07:43:32.794Z,7.13
2019-05-10T07:46:06.475Z,7.20
2019-05-10T07:48:34.960Z,6.60
2019-05-10T07:51:04.621Z,7.00
2019-05-10T07:53:34.150Z,6.73
2019-05-10T07:56:06.071Z,6.50
2019-05-10T07:58:38.229Z,6.27
2019-05-10T08:01:07.157Z,6.70
2019-05-10T08:03:44.273Z,6.83
2019-05-10T08:06:15.058Z,8.33
2019-05-10T08:08:43.337Z,6.77
2019-05-10T08:11:13.098Z,5.87
2019-05-10T08:13:42.818Z,6.10
2019-05-10T08:16:19.568Z,6.20
2019-05-10T08:18:44.216Z,6.07
2019-05-10T08:21:23.912Z,5.80
2019-05-10T08:23:48.144Z,5.83
2019-05-10T08:26:22.447Z,5.30
2019-05-10T08:28:52.368Z,6.00
2019-05-10T08:31:22.203Z,6.27
2019-05-10T08:33:58.581Z,5.37
2019-05-10T08:36:24.521Z,5.83
2019-05-10T08:39:05.100Z,7.10
2019-05-10T08:41:25.832Z,5.27
2019-05-10T08:43:55.654Z,5.60
2019-05-10T08:46:37.366Z,5.50
2019-05-10T08:48:57.789Z,5.60
2019-05-10T08:51:27.377Z,5.40
2019-05-10T08:53:58.363Z,5.70
2019-05-10T08:56:28.479Z,6.10
2019-05-10T08:58:58.063Z,5.57
2019-05-10T09:01:30.581Z,6.00
2019-05-10T09:04:06.439Z,5.77
2019-05-10T09:06:32.756Z,6.30
2019-05-10T09:09:05.948Z,5.87
2019-05-10T09:11:34.078Z,6.50
2019-05-10T09:14:04.447Z,5.80
2019-05-10T09:16:39.314Z,5.40
2019-05-10T09:19:06.333Z,5.73
2019-05-10T09:21:41.300Z,5.87
2019-05-10T09:24:08.616Z,6.70
2019-05-10T09:26:41.699Z,8.20
2019-05-10T09:29:12.163Z,8.70
2019-05-10T09:31:48.597Z,9.30
2019-05-10T09:34:13.892Z,10.60
2019-05-10T09:36:47.130Z,12.23
2019-05-10T09:39:21.635Z,13.77
2019-05-10T09:41:49.066Z,14.70
2019-05-10T09:44:18.940Z,15.23
2019-05-10T09:46:48.775Z,14.43
2019-05-10T09:49:19.153Z,14.83
2019-05-10T09:51:48.901Z,14.63
2019-05-10T09:54:23.248Z,15.20
2019-05-10T09:56:52.273Z,14.83
2019-05-10T09:59:22.170Z,14.37
2019-05-10T10:01:51.962Z,14.33
2019-05-10T10:04:21.777Z,14.27
2019-05-10T10:06:53.283Z,14.93
2019-05-10T10:09:33.758Z,13.90
2019-05-10T10:12:01.725Z,14.57
2019-05-10T10:14:37.786Z,15.40
2019-05-10T10:17:03.289Z,14.13
2019-05-10T10:19:34.303Z,13.50
2019-05-10T10:22:05.687Z,12.10
2019-05-10T10:24:40.230Z,13.93
2019-05-10T10:27:07.917Z,14.37
2019-05-10T10:29:38.761Z,13.57
2019-05-10T10:32:09.941Z,15.07
2019-05-10T10:34:43.056Z,14.80
2019-05-10T10:37:14.676Z,13.70
2019-05-10T10:39:43.935Z,13.73
2019-05-10T10:42:13.832Z,14.40
2019-05-10T10:44:43.423Z,13.77
2019-05-10T10:47:12.935Z,13.93
2019-05-10T10:49:42.954Z,13.00
2019-05-10T10:52:13.541Z,14.33
2019-05-10T10:54:43.284Z,12.87
2019-05-10T10:57:13.206Z,12.83
2019-05-10T10:59:47.378Z,12.37
2019-05-10T11:02:31.467Z,11.50
2019-05-10T11:04:49.010Z,10.60
2019-05-10T11:07:19.653Z,10.87
2019-05-10T11:09:53.694Z,11.63
2019-05-10T11:12:24.013Z,10.77
2019-05-10T11:14:52.876Z,10.60
2019-05-10T11:17:23.701Z,10.27
2019-05-10T11:19:53.709Z,10.07
2019-05-10T11:22:27.401Z,10.33
2019-05-10T11:25:02.970Z,10.67
2019-05-10T11:27:28.042Z,11.37
2019-05-10T11:30:00.703Z,11.87
2019-05-10T11:32:31.469Z,12.83
2019-05-10T11:35:05.105Z,11.87
2019-05-10T11:37:36.372Z,13.10
2019-05-10T11:40:06.489Z,12.10
2019-05-10T11:42:43.809Z,13.30
2019-05-10T11:45:11.121Z,13.30
2019-05-10T11:47:41.073Z,14.73
2019-05-10T11:50:26.579Z,12.07
2019-05-10T11:52:43.325Z,11.60
2019-05-10T11:55:13.687Z,12.23
2019-05-10T11:57:44.286Z,12.23
2019-05-10T12:00:28.016Z,11.10
2019-05-10T12:03:03.350Z,11.73
2019-05-10T12:07:54.707Z,11.10
2019-05-10T12:10:25.859Z,10.60
2019-05-10T12:13:08.725Z,10.47
2019-05-10T12:15:31.440Z,10.70
2019-05-10T12:18:04.549Z,10.17
2019-05-10T12:20:51.045Z,10.60
2019-05-10T12:23:05.672Z,10.73
2019-05-10T12:25:51.261Z,11.60
2019-05-10T12:26:30.936Z,10.70
2019-05-10T12:28:08.823Z,13.10
2019-05-10T12:30:40.914Z,13.97
2019-05-10T12:33:24.251Z,15.83
2019-05-10T12:35:50.967Z,15.33
2019-05-10T12:38:29.686Z,16.97
2019-05-10T12:40:55.600Z,17.43
2019-05-10T12:43:30.810Z,18.23
2019-05-10T12:46:00.588Z,19.13
2019-05-10T12:48:31.705Z,18.00
2019-05-10T12:51:07.739Z,19.57
2019-05-10T12:53:36.628Z,17.83
2019-05-10T12:56:05.167Z,17.67
2019-05-10T12:58:35.009Z,17.90
2019-05-10T13:01:04.732Z,18.30
2019-05-10T13:03:34.747Z,18.80
2019-05-10T13:06:04.861Z,19.20
2019-05-10T13:08:34.740Z,17.40
2019-05-10T13:11:05.082Z,18.53
2019-05-10T13:13:35.954Z,18.63
2019-05-10T13:16:10.017Z,20.10
2019-05-10T13:18:50.590Z,19.00
2019-05-10T13:21:20.673Z,20.73
2019-05-10T13:23:45.719Z,18.33
2019-05-10T13:26:15.347Z,20.67
2019-05-10T13:28:45.729Z,20.40
2019-05-10T13:31:15.410Z,19.47
2019-05-10T13:33:45.368Z,19.27
2019-05-10T13:36:15.215Z,19.80
2019-05-10T13:38:49.433Z,18.77
2019-05-10T13:41:24.463Z,17.43
2019-05-10T13:43:50.946Z,16.17
2019-05-10T13:46:20.548Z,12.57
2019-05-10T13:48:51.197Z,11.80
2019-05-10T13:51:21.635Z,12.53
2019-05-10T13:53:53.793Z,12.87
2019-05-10T13:56:24.827Z,11.73
2019-05-10T13:58:55.289Z,11.87
2019-05-10T14:01:27.500Z,11.57
2019-05-10T14:04:01.083Z,11.07
2019-05-10T14:06:29.074Z,10.93
2019-05-10T14:08:59.877Z,11.07
2019-05-10T14:11:33.941Z,11.60
2019-05-10T14:14:01.660Z,10.67
2019-05-10T14:16:31.858Z,9.53
2019-05-10T14:19:02.396Z,7.77
2019-05-10T14:21:33.334Z,8.23
2019-05-10T14:24:08.992Z,9.37
2019-05-10T14:26:38.201Z,9.33
2019-05-10T14:29:11.075Z,8.60
2019-05-10T14:31:39.557Z,9.83
2019-05-10T14:34:16.453Z,9.53
2019-05-10T14:36:43.817Z,9.40
2019-05-10T14:39:13.563Z,9.57
2019-05-10T14:41:45.304Z,9.50
2019-05-10T14:44:15.669Z,8.80
2019-05-10T14:46:45.580Z,8.53
2019-05-10T14:49:17.486Z,7.17
2019-05-10T14:51:58.341Z,6.93
2019-05-10T14:54:19.885Z,7.20
2019-05-10T14:56:49.793Z,7.07
2019-05-10T14:59:19.840Z,6.80
2019-05-10T15:01:50.002Z,6.80
2019-05-10T15:04:43.896Z,6.43
2019-05-10T15:06:53.105Z,7.00
2019-05-10T15:09:24.227Z,6.80
2019-05-10T15:11:55.511Z,6.20
2019-05-10T15:14:26.435Z,6.60
2019-05-10T15:16:56.151Z,6.30
2019-05-10T15:19:40.563Z,6.53
2019-05-10T15:22:18.360Z,7.40
2019-05-10T15:24:44.798Z,7.10
2019-05-10T15:27:21.490Z,6.30
2019-05-10T15:29:47.515Z,6.47
2019-05-10T15:32:17.565Z,6.07
2019-05-10T15:35:04.301Z,6.93
2019-05-10T15:37:19.726Z,5.80
2019-05-10T15:39:53.504Z,6.37
2019-05-10T15:42:24.669Z,4.90
2019-05-10T15:44:54.601Z,5.40
2019-05-10T15:47:24.790Z,4.93
2019-05-10T15:50:00.128Z,4.90
2019-05-10T15:52:28.077Z,3.80
2019-05-10T15:54:58.263Z,4.47
2019-05-10T15:57:32.275Z,3.40
2019-05-10T16:00:00.910Z,3.63
2019-05-10T16:02:30.591Z,2.60
2019-05-10T16:05:00.233Z,2.37
2019-05-10T16:07:32.098Z,1.97
2019-05-10T16:10:04.528Z,2.03
2019-05-10T16:12:37.768Z,2.10
2019-05-10T16:15:13.678Z,1.87
2019-05-10T16:17:39.749Z,2.10
2019-05-10T16:20:10.655Z,1.90
2019-05-10T16:22:42.138Z,2.00
2019-05-10T16:25:11.824Z,1.80
2019-05-10T16:27:44.788Z,1.83
2019-05-10T16:30:17.730Z,1.80
2019-05-10T16:32:49.103Z,1.80
2019-05-10T16:35:22.068Z,2.00
2019-05-10T16:37:53.329Z,1.80
2019-05-10T16:40:24.032Z,2.20
2019-05-10T16:42:54.272Z,1.90
2019-05-10T16:45:28.775Z,1.70
2019-05-10T16:47:59.280Z,1.70
2019-05-10T16:50:31.716Z,2.00
2019-05-10T16:53:08.231Z,1.70
2019-05-10T16:55:41.053Z,1.93
2019-05-10T16:58:22.438Z,1.50
2019-05-10T17:00:52.528Z,1.70
2019-05-10T17:03:23.054Z,1.50
2019-05-10T17:05:58.313Z,1.60
2019-05-10T17:08:24.904Z,1.80
2019-05-10T17:10:55.031Z,1.40
2019-05-10T17:13:25.133Z,1.47
2019-05-10T17:15:56.515Z,2.50
2019-05-10T17:18:26.340Z,1.93
2019-05-10T17:20:56.019Z,2.03
2019-05-10T17:23:26.307Z,2.20
2019-05-10T17:25:55.955Z,2.00
2019-05-10T17:28:29.554Z,2.37
2019-05-10T17:30:59.766Z,2.30
2019-05-10T17:33:30.513Z,2.63
2019-05-10T17:36:07.948Z,1.60
2019-05-10T17:38:32.794Z,1.67
2019-05-10T17:41:02.417Z,1.97
2019-05-10T17:43:32.115Z,1.67
2019-05-10T17:46:02.642Z,1.80
2019-05-10T17:48:32.567Z,1.90
2019-05-10T17:51:02.325Z,1.80
2019-05-10T17:53:32.207Z,1.80
2019-05-10T17:56:03.437Z,1.80
2019-05-10T17:58:34.935Z,1.77
2019-05-10T18:01:04.769Z,1.67
2019-05-10T18:03:34.944Z,1.90
2019-05-10T18:06:05.395Z,1.67
2019-05-10T18:08:38.382Z,1.50
2019-05-10T18:11:09.439Z,1.60
2019-05-10T18:13:40.859Z,2.03
2019-05-10T18:16:13.547Z,1.53
2019-05-10T18:18:47.061Z,1.80
2019-05-10T18:21:22.197Z,1.90
2019-05-10T18:23:52.562Z,1.70
2019-05-10T18:26:22.403Z,1.60
2019-05-10T18:28:52.888Z,1.90
2019-05-10T18:31:22.984Z,1.90
2019-05-10T18:33:54.549Z,1.57
2019-05-10T18:36:24.832Z,1.77
2019-05-10T18:38:56.127Z,2.13
2019-05-10T18:41:26.210Z,1.60
2019-05-10T18:43:56.133Z,1.67
2019-05-10T18:46:27.849Z,2.03
2019-05-10T18:48:57.971Z,1.87
2019-05-10T18:51:28.174Z,1.90
2019-05-10T18:54:01.073Z,2.00
2019-05-10T18:56:33.231Z,2.23
2019-05-10T18:59:07.513Z,2.17
2019-05-10T19:01:40.535Z,2.00
2019-05-10T19:04:14.203Z,2.10
2019-05-10T19:06:44.287Z,2.40
2019-05-10T19:09:13.469Z,1.80
2019-05-10T19:11:44.338Z,1.97
2019-05-10T19:14:14.715Z,2.07
2019-05-10T19:16:46.730Z,2.10
2019-05-10T19:19:19.624Z,2.00
2019-05-10T19:21:52.911Z,1.97
2019-05-10T19:24:24.241Z,2.70
2019-05-10T19:26:54.771Z,2.87
2019-05-10T19:29:27.552Z,2.20
2019-05-10T19:32:03.581Z,2.33
2019-05-10T19:34:33.371Z,2.80
2019-05-10T19:37:03.365Z,2.30
2019-05-10T19:39:35.038Z,1.93
2019-05-10T19:42:07.708Z,1.93
2019-05-10T19:44:40.530Z,2.93
2019-05-10T19:47:17.695Z,2.77
2019-05-10T19:49:51.577Z,2.60
2019-05-10T19:52:27.805Z,2.33
2019-05-10T19:54:59.210Z,2.03
2019-05-10T19:57:29.351Z,1.73
2019-05-10T20:00:02.043Z,1.87
2019-05-10T20:02:34.722Z,2.20
2019-05-10T20:05:06.427Z,2.13
2019-05-10T20:07:45.973Z,2.40
2019-05-10T20:10:14.113Z,2.20
2019-05-10T20:12:43.769Z,2.87
2019-05-10T20:15:18.336Z,2.43
2019-05-10T20:17:53.521Z,2.30
2019-05-10T20:20:25.287Z,2.03
2019-05-10T20:22:56.163Z,2.27
2019-05-10T20:25:32.052Z,2.43
2019-05-10T20:28:10.669Z,2.43
2019-05-10T20:30:42.054Z,2.20
2019-05-10T20:33:15.307Z,2.33
2019-05-10T20:35:46.070Z,2.23
2019-05-10T20:38:16.630Z,2.63
2019-05-10T20:40:52.790Z,2.30
2019-05-10T20:43:24.921Z,2.37
2019-05-10T20:45:55.136Z,2.03
2019-05-10T20:48:25.272Z,2.57
2019-05-10T20:50:55.644Z,2.50
2019-05-10T20:53:27.819Z,2.10
2019-05-10T20:56:03.790Z,3.10
2019-05-10T20:58:34.106Z,2.93
2019-05-10T21:01:04.080Z,2.67
2019-05-10T21:03:37.023Z,2.73
2019-05-10T21:06:06.626Z,2.33
2019-05-10T21:08:37.507Z,2.40
2019-05-10T21:11:07.831Z,2.30
2019-05-10T21:13:38.330Z,2.30
2019-05-10T21:16:08.269Z,3.20
2019-05-10T21:18:38.061Z,2.33
2019-05-10T21:21:10.178Z,2.30
2019-05-10T21:23:40.186Z,2.40
2019-05-10T21:26:10.201Z,2.97
2019-05-10T21:28:40.148Z,2.40
2019-05-10T21:31:09.922Z,2.40
2019-05-10T21:33:42.791Z,2.60
2019-05-10T21:36:12.439Z,4.13
2019-05-10T21:38:42.504Z,2.93
2019-05-10T21:41:14.222Z,2.70
2019-05-10T21:43:47.427Z,2.90
2019-05-10T21:46:17.650Z,2.93
2019-05-10T21:48:49.305Z,2.93
2019-05-10T21:51:19.799Z,2.80
2019-05-10T21:53:51.926Z,3.37
2019-05-10T21:56:22.294Z,2.83
2019-05-10T21:58:51.929Z,2.70
2019-05-10T22:01:25.650Z,3.47
2019-05-10T22:03:57.581Z,3.10
2019-05-10T22:06:27.703Z,2.97
2019-05-10T22:08:57.367Z,3.30
2019-05-10T22:11:32.204Z,3.00
2019-05-10T22:14:01.983Z,3.30
2019-05-10T22:16:32.323Z,2.67
2019-05-10T22:19:04.175Z,3.17
2019-05-10T22:21:34.101Z,3.23
2019-05-10T22:24:06.403Z,3.17
2019-05-10T22:26:36.072Z,3.00
2019-05-10T22:29:05.748Z,3.17
2019-05-10T22:31:36.949Z,3.53
2019-05-10T22:34:06.849Z,3.33
2019-05-10T22:36:36.741Z,3.20
2019-05-10T22:39:08.013Z,3.23
2019-05-10T22:41:42.866Z,2.97
2019-05-10T22:44:13.050Z,3.53
2019-05-10T22:46:43.304Z,2.83
2019-05-10T22:49:13.303Z,3.73
2019-05-10T22:51:43.350Z,3.40
2019-05-10T22:54:12.959Z,3.30
2019-05-10T22:56:42.790Z,3.67
2019-05-10T22:59:12.735Z,3.90
2019-05-10T23:01:44.756Z,3.57
2019-05-10T23:04:17.582Z,3.17
2019-05-10T23:06:50.301Z,3.70
2019-05-10T23:09:24.755Z,3.87
2019-05-10T23:11:52.270Z,3.30
2019-05-10T23:14:24.827Z,4.00
2019-05-10T23:16:56.912Z,3.83
2019-05-10T23:19:26.662Z,3.93
2019-05-10T23:21:56.423Z,3.80
2019-05-10T23:24:41.205Z,4.00
2019-05-10T23:27:11.360Z,3.70
2019-05-10T23:29:41.063Z,4.03
2019-05-10T23:32:11.106Z,4.10
2019-05-10T23:34:42.446Z,3.90
2019-05-10T23:37:13.054Z,3.53
2019-05-10T23:39:42.844Z,3.60
2019-05-10T23:42:13.405Z,3.73
2019-05-10T23:44:43.083Z,3.37
2019-05-10T23:47:12.749Z,4.03
2019-05-10T23:49:42.979Z,3.40
2019-05-10T23:52:12.719Z,3.40
2019-05-10T23:54:42.816Z,3.77
2019-05-10T23:57:23.133Z,4.10
2019-05-10T23:59:52.792Z,3.67
